sensor_id;sensor_type;location;lat;lon;timestamp;P1;durP1;ratioP1;P2;durP2;ratioP2
42226;SDS011;27892;52.378;13.122;2023-04-15T00:00:48;9.37;;;8.10;;
42226;SDS011;27892;52.378;13.122;2023-04-15T00:03:16;9.23;;;8.27;;
42226;SDS011;27892;52.378;13.122;2023-04-15T00:05:42;10.23;;;8.40;;
42226;SDS011;27892;52.378;13.122;2023-04-15T00:08:08;11.83;;;8.97;;
42226;SDS011;27892;52.378;13.122;2023-04-15T00:10:34;9.90;;;8.20;;
42226;SDS011;27892;52.378;13.122;2023-04-15T00:13:05;12.13;;;8.90;;
42226;SDS011;27892;52.378;13.122;2023-04-15T00:15:31;8.67;;;7.77;;
42226;SDS011;27892;52.378;13.122;2023-04-15T00:17:56;11.27;;;8.73;;
42226;SDS011;27892;52.378;13.122;2023-04-15T00:20:22;11.33;;;9.57;;
42226;SDS011;27892;52.378;13.122;2023-04-15T00:22:48;10.07;;;8.13;;
42226;SDS011;27892;52.378;13.122;2023-04-15T00:25:13;13.77;;;9.43;;
42226;SDS011;27892;52.378;13.122;2023-04-15T00:27:39;11.90;;;9.70;;
42226;SDS011;27892;52.378;13.122;2023-04-15T00:30:05;10.33;;;8.90;;
42226;SDS011;27892;52.378;13.122;2023-04-15T00:32:31;12.07;;;9.97;;
42226;SDS011;27892;52.378;13.122;2023-04-15T00:34:57;12.73;;;10.00;;
42226;SDS011;27892;52.378;13.122;2023-04-15T00:37:22;9.67;;;8.37;;
42226;SDS011;27892;52.378;13.122;2023-04-15T00:39:48;12.47;;;9.73;;
42226;SDS011;27892;52.378;13.122;2023-04-15T00:42:14;11.40;;;9.27;;
42226;SDS011;27892;52.378;13.122;2023-04-15T00:44:40;11.37;;;9.57;;
42226;SDS011;27892;52.378;13.122;2023-04-15T00:47:06;10.47;;;8.10;;
42226;SDS011;27892;52.378;13.122;2023-04-15T00:49:33;10.77;;;8.97;;
42226;SDS011;27892;52.378;13.122;2023-04-15T00:51:58;12.50;;;9.53;;
42226;SDS011;27892;52.378;13.122;2023-04-15T00:54:24;12.33;;;9.70;;
42226;SDS011;27892;52.378;13.122;2023-04-15T00:56:49;14.53;;;11.17;;
42226;SDS011;27892;52.378;13.122;2023-04-15T00:59:16;13.63;;;9.93;;
42226;SDS011;27892;52.378;13.122;2023-04-15T01:01:42;11.33;;;8.53;;
42226;SDS011;27892;52.378;13.122;2023-04-15T01:04:09;10.03;;;7.53;;
42226;SDS011;27892;52.378;13.122;2023-04-15T01:06:36;11.20;;;9.10;;
42226;SDS011;27892;52.378;13.122;2023-04-15T01:09:01;11.53;;;8.77;;
42226;SDS011;27892;52.378;13.122;2023-04-15T01:11:27;13.93;;;10.97;;
42226;SDS011;27892;52.378;13.122;2023-04-15T01:13:55;14.43;;;11.13;;
42226;SDS011;27892;52.378;13.122;2023-04-15T01:16:22;15.77;;;11.67;;
42226;SDS011;27892;52.378;13.122;2023-04-15T01:18:48;15.97;;;11.93;;
42226;SDS011;27892;52.378;13.122;2023-04-15T01:21:14;16.73;;;12.10;;
42226;SDS011;27892;52.378;13.122;2023-04-15T01:23:39;18.73;;;12.53;;
42226;SDS011;27892;52.378;13.122;2023-04-15T01:26:06;14.20;;;10.87;;
42226;SDS011;27892;52.378;13.122;2023-04-15T01:28:35;18.37;;;13.20;;
42226;SDS011;27892;52.378;13.122;2023-04-15T01:31:06;18.87;;;13.83;;
42226;SDS011;27892;52.378;13.122;2023-04-15T01:33:36;21.30;;;14.03;;
42226;SDS011;27892;52.378;13.122;2023-04-15T01:36:03;21.17;;;14.93;;
42226;SDS011;27892;52.378;13.122;2023-04-15T01:38:30;20.53;;;14.30;;
42226;SDS011;27892;52.378;13.122;2023-04-15T01:40:57;23.10;;;16.13;;
42226;SDS011;27892;52.378;13.122;2023-04-15T01:43:23;21.50;;;15.13;;
42226;SDS011;27892;52.378;13.122;2023-04-15T01:45:49;18.90;;;13.60;;
42226;SDS011;27892;52.378;13.122;2023-04-15T01:48:15;16.70;;;12.27;;
42226;SDS011;27892;52.378;13.122;2023-04-15T01:50:41;15.20;;;11.17;;
42226;SDS011;27892;52.378;13.122;2023-04-15T01:53:07;14.53;;;10.17;;
42226;SDS011;27892;52.378;13.122;2023-04-15T01:55:33;17.43;;;12.47;;
42226;SDS011;27892;52.378;13.122;2023-04-15T01:57:59;17.07;;;12.30;;
42226;SDS011;27892;52.378;13.122;2023-04-15T02:00:25;17.77;;;13.03;;
42226;SDS011;27892;52.378;13.122;2023-04-15T02:02:51;17.20;;;11.93;;
42226;SDS011;27892;52.378;13.122;2023-04-15T02:05:17;25.57;;;16.53;;
42226;SDS011;27892;52.378;13.122;2023-04-15T02:07:42;20.60;;;15.27;;
42226;SDS011;27892;52.378;13.122;2023-04-15T02:10:09;20.57;;;14.53;;
42226;SDS011;27892;52.378;13.122;2023-04-15T02:12:37;19.00;;;12.60;;
42226;SDS011;27892;52.378;13.122;2023-04-15T02:15:04;17.43;;;12.40;;
42226;SDS011;27892;52.378;13.122;2023-04-15T02:17:32;15.30;;;11.00;;
42226;SDS011;27892;52.378;13.122;2023-04-15T02:19:59;18.10;;;12.10;;
42226;SDS011;27892;52.378;13.122;2023-04-15T02:22:24;15.60;;;11.67;;
42226;SDS011;27892;52.378;13.122;2023-04-15T02:24:50;15.30;;;10.53;;
42226;SDS011;27892;52.378;13.122;2023-04-15T02:27:16;22.67;;;14.67;;
42226;SDS011;27892;52.378;13.122;2023-04-15T02:29:45;16.47;;;11.67;;
42226;SDS011;27892;52.378;13.122;2023-04-15T02:32:11;22.20;;;14.87;;
42226;SDS011;27892;52.378;13.122;2023-04-15T02:34:38;19.60;;;13.37;;
42226;SDS011;27892;52.378;13.122;2023-04-15T02:37:06;17.47;;;11.87;;
42226;SDS011;27892;52.378;13.122;2023-04-15T02:39:36;16.43;;;11.90;;
42226;SDS011;27892;52.378;13.122;2023-04-15T02:42:02;22.47;;;15.40;;
42226;SDS011;27892;52.378;13.122;2023-04-15T02:44:28;19.53;;;13.50;;
42226;SDS011;27892;52.378;13.122;2023-04-15T02:46:55;20.37;;;14.33;;
42226;SDS011;27892;52.378;13.122;2023-04-15T02:49:22;17.60;;;12.70;;
42226;SDS011;27892;52.378;13.122;2023-04-15T02:51:48;17.73;;;12.50;;
42226;SDS011;27892;52.378;13.122;2023-04-15T02:54:18;16.97;;;12.03;;
42226;SDS011;27892;52.378;13.122;2023-04-15T02:57:03;15.73;;;11.37;;
42226;SDS011;27892;52.378;13.122;2023-04-15T02:59:49;14.87;;;10.10;;
42226;SDS011;27892;52.378;13.122;2023-04-15T03:02:37;15.23;;;10.23;;
42226;SDS011;27892;52.378;13.122;2023-04-15T03:05:22;18.80;;;12.20;;
42226;SDS011;27892;52.378;13.122;2023-04-15T03:08:08;19.40;;;13.20;;
42226;SDS011;27892;52.378;13.122;2023-04-15T03:10:52;19.73;;;13.47;;
42226;SDS011;27892;52.378;13.122;2023-04-15T03:13:36;17.27;;;11.77;;
42226;SDS011;27892;52.378;13.122;2023-04-15T03:16:03;24.07;;;16.10;;
42226;SDS011;27892;52.378;13.122;2023-04-15T03:18:29;23.50;;;15.70;;
42226;SDS011;27892;52.378;13.122;2023-04-15T03:20:55;20.10;;;13.27;;
42226;SDS011;27892;52.378;13.122;2023-04-15T03:23:21;18.53;;;11.97;;
42226;SDS011;27892;52.378;13.122;2023-04-15T03:25:46;17.40;;;11.83;;
42226;SDS011;27892;52.378;13.122;2023-04-15T03:28:12;17.63;;;11.73;;
42226;SDS011;27892;52.378;13.122;2023-04-15T03:30:37;24.50;;;15.07;;
42226;SDS011;27892;52.378;13.122;2023-04-15T03:33:03;22.30;;;14.87;;
42226;SDS011;27892;52.378;13.122;2023-04-15T03:35:29;24.50;;;15.97;;
42226;SDS011;27892;52.378;13.122;2023-04-15T03:37:55;25.67;;;16.57;;
42226;SDS011;27892;52.378;13.122;2023-04-15T03:40:21;21.07;;;14.70;;
42226;SDS011;27892;52.378;13.122;2023-04-15T03:42:46;16.60;;;11.17;;
42226;SDS011;27892;52.378;13.122;2023-04-15T03:45:12;21.93;;;14.77;;
42226;SDS011;27892;52.378;13.122;2023-04-15T03:47:38;24.13;;;16.43;;
42226;SDS011;27892;52.378;13.122;2023-04-15T03:50:03;21.53;;;14.47;;
42226;SDS011;27892;52.378;13.122;2023-04-15T03:52:29;19.40;;;12.87;;
42226;SDS011;27892;52.378;13.122;2023-04-15T03:54:55;19.30;;;13.10;;
42226;SDS011;27892;52.378;13.122;2023-04-15T03:57:21;16.70;;;11.67;;
42226;SDS011;27892;52.378;13.122;2023-04-15T03:59:46;16.30;;;11.77;;
42226;SDS011;27892;52.378;13.122;2023-04-15T04:02:12;16.13;;;11.03;;
42226;SDS011;27892;52.378;13.122;2023-04-15T04:04:38;19.77;;;13.10;;
42226;SDS011;27892;52.378;13.122;2023-04-15T04:07:03;24.53;;;15.47;;
42226;SDS011;27892;52.378;13.122;2023-04-15T04:09:29;21.03;;;13.80;;
42226;SDS011;27892;52.378;13.122;2023-04-15T04:11:54;17.93;;;12.37;;
42226;SDS011;27892;52.378;13.122;2023-04-15T04:14:23;16.10;;;11.13;;
42226;SDS011;27892;52.378;13.122;2023-04-15T04:16:53;16.57;;;11.53;;
42226;SDS011;27892;52.378;13.122;2023-04-15T04:19:19;14.63;;;10.37;;
42226;SDS011;27892;52.378;13.122;2023-04-15T04:21:45;13.33;;;9.50;;
42226;SDS011;27892;52.378;13.122;2023-04-15T04:24:11;15.47;;;11.20;;
42226;SDS011;27892;52.378;13.122;2023-04-15T04:26:36;15.13;;;10.53;;
42226;SDS011;27892;52.378;13.122;2023-04-15T04:29:02;15.33;;;10.50;;
42226;SDS011;27892;52.378;13.122;2023-04-15T04:31:27;14.13;;;9.83;;
42226;SDS011;27892;52.378;13.122;2023-04-15T04:33:53;14.77;;;9.77;;
42226;SDS011;27892;52.378;13.122;2023-04-15T04:36:19;14.87;;;10.80;;
42226;SDS011;27892;52.378;13.122;2023-04-15T04:38:45;14.47;;;10.00;;
42226;SDS011;27892;52.378;13.122;2023-04-15T04:41:10;15.90;;;10.67;;
42226;SDS011;27892;52.378;13.122;2023-04-15T04:43:36;16.97;;;11.60;;
42226;SDS011;27892;52.378;13.122;2023-04-15T04:46:01;18.53;;;12.43;;
42226;SDS011;27892;52.378;13.122;2023-04-15T04:48:27;18.27;;;12.80;;
42226;SDS011;27892;52.378;13.122;2023-04-15T04:50:53;18.47;;;12.60;;
42226;SDS011;27892;52.378;13.122;2023-04-15T04:53:18;15.50;;;11.03;;
42226;SDS011;27892;52.378;13.122;2023-04-15T04:55:44;14.67;;;10.30;;
42226;SDS011;27892;52.378;13.122;2023-04-15T04:58:10;15.13;;;10.67;;
42226;SDS011;27892;52.378;13.122;2023-04-15T05:00:35;13.53;;;9.73;;
42226;SDS011;27892;52.378;13.122;2023-04-15T05:03:02;17.53;;;12.03;;
42226;SDS011;27892;52.378;13.122;2023-04-15T05:05:28;17.80;;;10.97;;
42226;SDS011;27892;52.378;13.122;2023-04-15T05:07:54;15.77;;;11.17;;
42226;SDS011;27892;52.378;13.122;2023-04-15T05:10:19;15.27;;;10.90;;
42226;SDS011;27892;52.378;13.122;2023-04-15T05:12:45;16.03;;;10.70;;
42226;SDS011;27892;52.378;13.122;2023-04-15T05:15:11;18.70;;;12.63;;
42226;SDS011;27892;52.378;13.122;2023-04-15T05:17:36;16.40;;;10.70;;
42226;SDS011;27892;52.378;13.122;2023-04-15T05:20:02;15.77;;;10.33;;
42226;SDS011;27892;52.378;13.122;2023-04-15T05:22:28;12.20;;;8.70;;
42226;SDS011;27892;52.378;13.122;2023-04-15T05:24:54;13.10;;;8.93;;
42226;SDS011;27892;52.378;13.122;2023-04-15T05:27:20;11.30;;;8.33;;
42226;SDS011;27892;52.378;13.122;2023-04-15T05:29:47;11.30;;;8.50;;
42226;SDS011;27892;52.378;13.122;2023-04-15T05:32:12;10.73;;;8.13;;
42226;SDS011;27892;52.378;13.122;2023-04-15T05:34:38;14.00;;;10.13;;
42226;SDS011;27892;52.378;13.122;2023-04-15T05:37:04;13.63;;;9.50;;
42226;SDS011;27892;52.378;13.122;2023-04-15T05:39:30;13.80;;;10.03;;
42226;SDS011;27892;52.378;13.122;2023-04-15T05:41:56;13.63;;;9.33;;
42226;SDS011;27892;52.378;13.122;2023-04-15T05:44:22;11.90;;;8.87;;
42226;SDS011;27892;52.378;13.122;2023-04-15T05:46:48;10.73;;;8.10;;
42226;SDS011;27892;52.378;13.122;2023-04-15T05:49:13;10.83;;;7.97;;
42226;SDS011;27892;52.378;13.122;2023-04-15T05:51:39;10.73;;;8.13;;
42226;SDS011;27892;52.378;13.122;2023-04-15T05:54:05;12.27;;;9.60;;
42226;SDS011;27892;52.378;13.122;2023-04-15T05:56:31;14.63;;;10.10;;
42226;SDS011;27892;52.378;13.122;2023-04-15T05:58:56;17.20;;;12.70;;
42226;SDS011;27892;52.378;13.122;2023-04-15T06:01:22;15.00;;;10.80;;
42226;SDS011;27892;52.378;13.122;2023-04-15T06:03:48;13.70;;;9.50;;
42226;SDS011;27892;52.378;13.122;2023-04-15T06:06:14;15.93;;;11.33;;
42226;SDS011;27892;52.378;13.122;2023-04-15T06:08:39;13.17;;;9.70;;
42226;SDS011;27892;52.378;13.122;2023-04-15T06:11:06;11.70;;;9.30;;
42226;SDS011;27892;52.378;13.122;2023-04-15T06:13:31;12.00;;;8.43;;
42226;SDS011;27892;52.378;13.122;2023-04-15T06:15:57;9.67;;;7.70;;
42226;SDS011;27892;52.378;13.122;2023-04-15T06:18:23;8.53;;;6.90;;
42226;SDS011;27892;52.378;13.122;2023-04-15T06:20:49;14.27;;;10.93;;
42226;SDS011;27892;52.378;13.122;2023-04-15T06:23:15;13.07;;;9.33;;
42226;SDS011;27892;52.378;13.122;2023-04-15T06:25:41;12.83;;;9.50;;
42226;SDS011;27892;52.378;13.122;2023-04-15T06:28:07;14.63;;;10.10;;
42226;SDS011;27892;52.378;13.122;2023-04-15T06:30:33;14.60;;;11.00;;
42226;SDS011;27892;52.378;13.122;2023-04-15T06:33:00;15.87;;;10.00;;
42226;SDS011;27892;52.378;13.122;2023-04-15T06:35:27;15.20;;;11.43;;
42226;SDS011;27892;52.378;13.122;2023-04-15T06:37:52;12.43;;;9.70;;
42226;SDS011;27892;52.378;13.122;2023-04-15T06:40:18;15.57;;;10.33;;
42226;SDS011;27892;52.378;13.122;2023-04-15T06:45:29;10.63;;;8.60;;
42226;SDS011;27892;52.378;13.122;2023-04-15T06:47:56;13.40;;;9.27;;
42226;SDS011;27892;52.378;13.122;2023-04-15T06:50:21;12.63;;;9.03;;
42226;SDS011;27892;52.378;13.122;2023-04-15T06:52:47;10.90;;;9.00;;
42226;SDS011;27892;52.378;13.122;2023-04-15T06:55:13;12.67;;;8.97;;
42226;SDS011;27892;52.378;13.122;2023-04-15T06:57:38;11.13;;;8.90;;
42226;SDS011;27892;52.378;13.122;2023-04-15T07:00:04;8.27;;;7.23;;
42226;SDS011;27892;52.378;13.122;2023-04-15T07:02:31;12.13;;;9.63;;
42226;SDS011;27892;52.378;13.122;2023-04-15T07:04:57;12.40;;;10.00;;
42226;SDS011;27892;52.378;13.122;2023-04-15T07:07:23;13.43;;;10.57;;
42226;SDS011;27892;52.378;13.122;2023-04-15T07:09:49;12.20;;;9.70;;
42226;SDS011;27892;52.378;13.122;2023-04-15T07:12:17;9.97;;;8.03;;
42226;SDS011;27892;52.378;13.122;2023-04-15T07:14:43;12.30;;;9.47;;
42226;SDS011;27892;52.378;13.122;2023-04-15T07:17:09;14.83;;;9.00;;
42226;SDS011;27892;52.378;13.122;2023-04-15T07:19:35;10.47;;;8.13;;
42226;SDS011;27892;52.378;13.122;2023-04-15T07:22:01;10.90;;;8.80;;
42226;SDS011;27892;52.378;13.122;2023-04-15T07:24:26;9.37;;;7.87;;
42226;SDS011;27892;52.378;13.122;2023-04-15T07:26:55;12.83;;;9.23;;
42226;SDS011;27892;52.378;13.122;2023-04-15T07:29:22;10.50;;;8.43;;
42226;SDS011;27892;52.378;13.122;2023-04-15T07:31:48;10.27;;;8.50;;
42226;SDS011;27892;52.378;13.122;2023-04-15T07:34:13;10.40;;;9.27;;
42226;SDS011;27892;52.378;13.122;2023-04-15T07:36:40;11.97;;;8.83;;
42226;SDS011;27892;52.378;13.122;2023-04-15T07:39:06;13.13;;;9.07;;
42226;SDS011;27892;52.378;13.122;2023-04-15T07:41:40;11.40;;;8.40;;
42226;SDS011;27892;52.378;13.122;2023-04-15T07:44:06;11.50;;;9.03;;
42226;SDS011;27892;52.378;13.122;2023-04-15T07:46:32;11.13;;;8.90;;
42226;SDS011;27892;52.378;13.122;2023-04-15T07:48:57;9.80;;;8.50;;
42226;SDS011;27892;52.378;13.122;2023-04-15T07:51:23;12.50;;;9.43;;
42226;SDS011;27892;52.378;13.122;2023-04-15T07:53:49;10.17;;;8.23;;
42226;SDS011;27892;52.378;13.122;2023-04-15T07:56:15;8.10;;;7.20;;
42226;SDS011;27892;52.378;13.122;2023-04-15T07:58:41;14.57;;;11.20;;
42226;SDS011;27892;52.378;13.122;2023-04-15T08:01:07;13.20;;;10.17;;
42226;SDS011;27892;52.378;13.122;2023-04-15T08:03:33;12.43;;;9.90;;
42226;SDS011;27892;52.378;13.122;2023-04-15T08:05:59;10.97;;;8.57;;
42226;SDS011;27892;52.378;13.122;2023-04-15T08:08:25;7.90;;;7.10;;
42226;SDS011;27892;52.378;13.122;2023-04-15T08:10:51;9.67;;;7.57;;
42226;SDS011;27892;52.378;13.122;2023-04-15T08:13:17;11.63;;;9.47;;
42226;SDS011;27892;52.378;13.122;2023-04-15T08:15:43;9.67;;;7.93;;
42226;SDS011;27892;52.378;13.122;2023-04-15T08:18:08;14.50;;;10.67;;
42226;SDS011;27892;52.378;13.122;2023-04-15T08:20:35;12.50;;;9.63;;
42226;SDS011;27892;52.378;13.122;2023-04-15T08:23:01;10.50;;;8.50;;
42226;SDS011;27892;52.378;13.122;2023-04-15T08:25:27;11.80;;;9.40;;
42226;SDS011;27892;52.378;13.122;2023-04-15T08:27:56;10.90;;;9.57;;
42226;SDS011;27892;52.378;13.122;2023-04-15T08:30:22;9.97;;;8.27;;
42226;SDS011;27892;52.378;13.122;2023-04-15T08:32:47;16.47;;;12.03;;
42226;SDS011;27892;52.378;13.122;2023-04-15T08:35:15;13.73;;;10.30;;
42226;SDS011;27892;52.378;13.122;2023-04-15T08:37:40;16.57;;;11.20;;
42226;SDS011;27892;52.378;13.122;2023-04-15T08:40:06;12.07;;;10.30;;
42226;SDS011;27892;52.378;13.122;2023-04-15T08:42:40;11.83;;;9.73;;
42226;SDS011;27892;52.378;13.122;2023-04-15T08:45:08;9.83;;;8.77;;
42226;SDS011;27892;52.378;13.122;2023-04-15T08:47:35;10.77;;;8.63;;
42226;SDS011;27892;52.378;13.122;2023-04-15T08:50:03;11.10;;;9.30;;
42226;SDS011;27892;52.378;13.122;2023-04-15T08:52:31;10.77;;;9.40;;
42226;SDS011;27892;52.378;13.122;2023-04-15T08:54:57;11.07;;;9.80;;
42226;SDS011;27892;52.378;13.122;2023-04-15T08:57:26;11.23;;;9.07;;
42226;SDS011;27892;52.378;13.122;2023-04-15T08:59:56;15.13;;;11.10;;
42226;SDS011;27892;52.378;13.122;2023-04-15T09:02:22;12.10;;;10.03;;
42226;SDS011;27892;52.378;13.122;2023-04-15T09:04:49;10.50;;;8.60;;
42226;SDS011;27892;52.378;13.122;2023-04-15T09:07:15;9.47;;;7.80;;
42226;SDS011;27892;52.378;13.122;2023-04-15T09:09:41;11.70;;;9.90;;
42226;SDS011;27892;52.378;13.122;2023-04-15T09:12:07;13.07;;;10.53;;
42226;SDS011;27892;52.378;13.122;2023-04-15T09:14:34;11.90;;;10.60;;
42226;SDS011;27892;52.378;13.122;2023-04-15T09:17:01;10.43;;;9.17;;
42226;SDS011;27892;52.378;13.122;2023-04-15T09:19:28;9.53;;;8.20;;
42226;SDS011;27892;52.378;13.122;2023-04-15T09:21:56;11.40;;;9.40;;
42226;SDS011;27892;52.378;13.122;2023-04-15T09:24:23;11.27;;;9.27;;
42226;SDS011;27892;52.378;13.122;2023-04-15T09:26:51;10.47;;;8.77;;
42226;SDS011;27892;52.378;13.122;2023-04-15T09:29:23;11.27;;;9.20;;
42226;SDS011;27892;52.378;13.122;2023-04-15T09:31:50;11.23;;;9.47;;
42226;SDS011;27892;52.378;13.122;2023-04-15T09:34:17;14.13;;;10.50;;
42226;SDS011;27892;52.378;13.122;2023-04-15T09:39:12;13.20;;;11.30;;
42226;SDS011;27892;52.378;13.122;2023-04-15T09:41:38;11.50;;;9.43;;
42226;SDS011;27892;52.378;13.122;2023-04-15T09:44:05;13.10;;;10.47;;
42226;SDS011;27892;52.378;13.122;2023-04-15T09:46:40;11.67;;;9.47;;
42226;SDS011;27892;52.378;13.122;2023-04-15T09:49:07;11.77;;;10.07;;
42226;SDS011;27892;52.378;13.122;2023-04-15T09:51:37;10.47;;;8.23;;
42226;SDS011;27892;52.378;13.122;2023-04-15T09:54:04;8.13;;;7.33;;
42226;SDS011;27892;52.378;13.122;2023-04-15T09:56:33;6.57;;;5.97;;
42226;SDS011;27892;52.378;13.122;2023-04-15T09:59:01;6.93;;;6.23;;
42226;SDS011;27892;52.378;13.122;2023-04-15T10:01:27;9.47;;;8.47;;
42226;SDS011;27892;52.378;13.122;2023-04-15T10:03:53;9.80;;;8.03;;
42226;SDS011;27892;52.378;13.122;2023-04-15T10:06:21;9.37;;;8.40;;
42226;SDS011;27892;52.378;13.122;2023-04-15T10:08:54;9.47;;;7.93;;
42226;SDS011;27892;52.378;13.122;2023-04-15T10:11:21;8.23;;;7.40;;
42226;SDS011;27892;52.378;13.122;2023-04-15T10:13:49;8.27;;;7.33;;
42226;SDS011;27892;52.378;13.122;2023-04-15T10:16:15;7.57;;;6.77;;
42226;SDS011;27892;52.378;13.122;2023-04-15T10:18:46;6.87;;;6.03;;
42226;SDS011;27892;52.378;13.122;2023-04-15T10:21:12;6.23;;;5.63;;
42226;SDS011;27892;52.378;13.122;2023-04-15T10:23:42;6.70;;;6.00;;
42226;SDS011;27892;52.378;13.122;2023-04-15T10:26:09;7.50;;;6.70;;
42226;SDS011;27892;52.378;13.122;2023-04-15T10:28:38;8.07;;;7.27;;
42226;SDS011;27892;52.378;13.122;2023-04-15T10:31:04;7.37;;;6.63;;
42226;SDS011;27892;52.378;13.122;2023-04-15T10:33:31;6.83;;;6.13;;
42226;SDS011;27892;52.378;13.122;2023-04-15T10:35:57;9.63;;;8.03;;
42226;SDS011;27892;52.378;13.122;2023-04-15T10:38:43;9.30;;;7.83;;
42226;SDS011;27892;52.378;13.122;2023-04-15T10:41:20;9.33;;;8.33;;
42226;SDS011;27892;52.378;13.122;2023-04-15T10:46:38;7.80;;;6.90;;
42226;SDS011;27892;52.378;13.122;2023-04-15T10:49:09;7.17;;;6.43;;
42226;SDS011;27892;52.378;13.122;2023-04-15T10:52:06;7.33;;;6.60;;
42226;SDS011;27892;52.378;13.122;2023-04-15T10:54:32;7.27;;;6.27;;
42226;SDS011;27892;52.378;13.122;2023-04-15T10:59:36;10.07;;;8.70;;
42226;SDS011;27892;52.378;13.122;2023-04-15T11:02:37;8.87;;;7.30;;
42226;SDS011;27892;52.378;13.122;2023-04-15T11:05:02;8.93;;;7.73;;
42226;SDS011;27892;52.378;13.122;2023-04-15T11:07:32;9.53;;;7.87;;
42226;SDS011;27892;52.378;13.122;2023-04-15T11:12:55;13.57;;;10.73;;
42226;SDS011;27892;52.378;13.122;2023-04-15T11:17:58;11.40;;;9.17;;
42226;SDS011;27892;52.378;13.122;2023-04-15T11:20:33;8.97;;;8.07;;
42226;SDS011;27892;52.378;13.122;2023-04-15T11:22:59;9.07;;;8.13;;
42226;SDS011;27892;52.378;13.122;2023-04-15T11:25:26;11.13;;;8.40;;
42226;SDS011;27892;52.378;13.122;2023-04-15T11:27:53;8.70;;;7.80;;
42226;SDS011;27892;52.378;13.122;2023-04-15T11:30:24;7.47;;;6.77;;
42226;SDS011;27892;52.378;13.122;2023-04-15T11:32:52;7.90;;;6.87;;
42226;SDS011;27892;52.378;13.122;2023-04-15T11:35:19;11.03;;;8.47;;
42226;SDS011;27892;52.378;13.122;2023-04-15T11:37:46;8.67;;;7.07;;
42226;SDS011;27892;52.378;13.122;2023-04-15T11:40:16;9.83;;;8.23;;
42226;SDS011;27892;52.378;13.122;2023-04-15T11:43:02;8.57;;;7.27;;
42226;SDS011;27892;52.378;13.122;2023-04-15T11:45:52;7.03;;;6.33;;
42226;SDS011;27892;52.378;13.122;2023-04-15T11:48:18;6.83;;;6.20;;
42226;SDS011;27892;52.378;13.122;2023-04-15T11:50:50;6.50;;;5.90;;
42226;SDS011;27892;52.378;13.122;2023-04-15T11:53:24;7.43;;;6.10;;
42226;SDS011;27892;52.378;13.122;2023-04-15T11:56:05;6.50;;;5.80;;
42226;SDS011;27892;52.378;13.122;2023-04-15T11:58:33;6.37;;;5.77;;
42226;SDS011;27892;52.378;13.122;2023-04-15T12:01:01;8.10;;;7.30;;
42226;SDS011;27892;52.378;13.122;2023-04-15T12:03:28;6.60;;;5.97;;
42226;SDS011;27892;52.378;13.122;2023-04-15T12:06:08;7.50;;;6.80;;
42226;SDS011;27892;52.378;13.122;2023-04-15T12:17:05;8.47;;;7.57;;
42226;SDS011;27892;52.378;13.122;2023-04-15T12:19:35;7.27;;;6.57;;
42226;SDS011;27892;52.378;13.122;2023-04-15T12:22:12;8.67;;;6.93;;
42226;SDS011;27892;52.378;13.122;2023-04-15T12:24:40;8.80;;;7.90;;
42226;SDS011;27892;52.378;13.122;2023-04-15T12:27:13;6.57;;;5.97;;
42226;SDS011;27892;52.378;13.122;2023-04-15T12:29:40;8.60;;;6.83;;
42226;SDS011;27892;52.378;13.122;2023-04-15T12:32:11;9.83;;;7.67;;
42226;SDS011;27892;52.378;13.122;2023-04-15T12:34:38;7.23;;;6.30;;
42226;SDS011;27892;52.378;13.122;2023-04-15T12:37:05;7.13;;;6.43;;
42226;SDS011;27892;52.378;13.122;2023-04-15T12:39:36;8.43;;;7.30;;
42226;SDS011;27892;52.378;13.122;2023-04-15T12:42:03;8.53;;;7.23;;
42226;SDS011;27892;52.378;13.122;2023-04-15T12:44:30;8.60;;;7.00;;
42226;SDS011;27892;52.378;13.122;2023-04-15T12:46:57;6.80;;;6.03;;
42226;SDS011;27892;52.378;13.122;2023-04-15T12:49:24;5.60;;;5.10;;
42226;SDS011;27892;52.378;13.122;2023-04-15T12:51:54;8.53;;;7.73;;
42226;SDS011;27892;52.378;13.122;2023-04-15T12:54:21;7.83;;;7.03;;
42226;SDS011;27892;52.378;13.122;2023-04-15T12:56:47;6.47;;;5.87;;
42226;SDS011;27892;52.378;13.122;2023-04-15T12:59:14;5.93;;;5.37;;
42226;SDS011;27892;52.378;13.122;2023-04-15T13:01:44;6.77;;;6.07;;
42226;SDS011;27892;52.378;13.122;2023-04-15T13:04:11;6.63;;;6.03;;
42226;SDS011;27892;52.378;13.122;2023-04-15T13:06:37;6.70;;;6.00;;
42226;SDS011;27892;52.378;13.122;2023-04-15T13:09:03;6.50;;;5.90;;
42226;SDS011;27892;52.378;13.122;2023-04-15T13:11:29;8.30;;;6.80;;
42226;SDS011;27892;52.378;13.122;2023-04-15T13:13:57;6.73;;;5.93;;
42226;SDS011;27892;52.378;13.122;2023-04-15T13:16:30;6.43;;;5.67;;
42226;SDS011;27892;52.378;13.122;2023-04-15T13:18:57;7.57;;;6.40;;
42226;SDS011;27892;52.378;13.122;2023-04-15T13:21:24;7.13;;;6.40;;
42226;SDS011;27892;52.378;13.122;2023-04-15T13:23:51;7.30;;;6.03;;
42226;SDS011;27892;52.378;13.122;2023-04-15T13:26:16;7.47;;;6.27;;
42226;SDS011;27892;52.378;13.122;2023-04-15T13:28:42;6.70;;;6.07;;
42226;SDS011;27892;52.378;13.122;2023-04-15T13:31:08;7.03;;;5.80;;
42226;SDS011;27892;52.378;13.122;2023-04-15T13:33:34;6.90;;;6.20;;
42226;SDS011;27892;52.378;13.122;2023-04-15T13:36:00;6.77;;;5.97;;
42226;SDS011;27892;52.378;13.122;2023-04-15T13:38:26;6.20;;;5.60;;
42226;SDS011;27892;52.378;13.122;2023-04-15T13:40:51;5.60;;;5.10;;
42226;SDS011;27892;52.378;13.122;2023-04-15T13:43:17;5.43;;;4.93;;
42226;SDS011;27892;52.378;13.122;2023-04-15T13:45:43;5.17;;;4.67;;
42226;SDS011;27892;52.378;13.122;2023-04-15T13:48:10;5.13;;;4.63;;
42226;SDS011;27892;52.378;13.122;2023-04-15T13:50:36;5.67;;;5.17;;
42226;SDS011;27892;52.378;13.122;2023-04-15T13:53:01;6.47;;;5.83;;
42226;SDS011;27892;52.378;13.122;2023-04-15T13:55:27;7.47;;;6.67;;
42226;SDS011;27892;52.378;13.122;2023-04-15T13:57:53;6.10;;;5.50;;
42226;SDS011;27892;52.378;13.122;2023-04-15T14:00:18;6.97;;;6.27;;
42226;SDS011;27892;52.378;13.122;2023-04-15T14:02:44;8.47;;;7.20;;
42226;SDS011;27892;52.378;13.122;2023-04-15T14:05:10;7.37;;;6.47;;
42226;SDS011;27892;52.378;13.122;2023-04-15T14:07:36;6.97;;;6.07;;
42226;SDS011;27892;52.378;13.122;2023-04-15T14:10:02;7.57;;;6.80;;
42226;SDS011;27892;52.378;13.122;2023-04-15T14:12:28;8.37;;;7.20;;
42226;SDS011;27892;52.378;13.122;2023-04-15T14:14:53;8.67;;;7.50;;
42226;SDS011;27892;52.378;13.122;2023-04-15T14:17:20;7.97;;;6.87;;
42226;SDS011;27892;52.378;13.122;2023-04-15T14:19:46;7.20;;;6.50;;
42226;SDS011;27892;52.378;13.122;2023-04-15T14:22:12;7.47;;;6.67;;
42226;SDS011;27892;52.378;13.122;2023-04-15T14:24:37;7.10;;;6.40;;
42226;SDS011;27892;52.378;13.122;2023-04-15T14:27:03;7.03;;;6.10;;
42226;SDS011;27892;52.378;13.122;2023-04-15T14:29:29;6.77;;;6.07;;
42226;SDS011;27892;52.378;13.122;2023-04-15T14:31:55;6.50;;;5.90;;
42226;SDS011;27892;52.378;13.122;2023-04-15T14:34:22;6.13;;;5.53;;
42226;SDS011;27892;52.378;13.122;2023-04-15T14:36:50;5.80;;;5.10;;
42226;SDS011;27892;52.378;13.122;2023-04-15T14:39:17;6.60;;;5.80;;
42226;SDS011;27892;52.378;13.122;2023-04-15T14:41:43;7.37;;;6.10;;
42226;SDS011;27892;52.378;13.122;2023-04-15T14:44:09;5.73;;;5.13;;
42226;SDS011;27892;52.378;13.122;2023-04-15T14:46:36;5.60;;;5.10;;